Edgerton, Wisconsin
Current Conditions -  °F | °C
As of 9:55 PM on Sunday 23 Nov 2014 (Local Time) from KJVL Reporting Station
Light Rain Light Rain  
Wind Chill: 46°   Ceiling: 300
Heat Index: 46°   Visibility: 1.7mi
Dew Point: 45°   Wind: 0mph
Humidity: 93%   Direction: NA
Pressure: 29.18"   Gusts: NA
Location:  42.84°N, 89.07°W
Report Text: KJVL 240355Z AUTO 00000KT 1 3/4SM -RA BKN003 BKN008 08/07 A2918 RMK AO2 P0004
Loading
Personal Weather Stations






























Interactive Weather Map New forecast layout! Learn more

10-Day Weather Forecast

Advertisements
Track Severe Weather on mobile